Impacts TAF Board
For situational awareness. Not to be used for flight planning purposes.
IDs:

KCSG - Columbus Arpt, GA, US

Issued at 1139 UTC 15 Oct 2018
Updated at 1432 UTC 15 Oct 2018
Potential Impact None Slight Moderate High
Time1355Z 15/15Z 15/16Z 15/17Z 15/18Z 15/19Z 15/20Z 15/21Z 15/22Z 15/23Z 16/00Z 16/01Z 16/02Z 16/03Z>>
Type OBS PRVL PRVL PRVL PRVL PRVL PRVL PRVL PRVL PRVL PRVL PRVL PRVL PRVL
VIS 10 >6 >6 >6 >6 >6 >6 >6 >6 >6 >6 >6 >6 >6
CIG 50 -- -- -- -- -- -- -- -- -- -- -- -- --
Cover BKN SCT SCT SCT SCT SCT SCT SCT SCT FEW FEW FEW FEW FEW
FltCat VFR VFR VFR VFR VFR VFR VFR VFR VFR VFR VFR VFR VFR VFR
WX -- -- -- -- -- -- -- -- -- -- -- -- -- --
WDir 160 150 150 210 210 210 210 210 210 220 220 220 220 220
WSpd 4 6 6 7 7 7 7 7 7 3 3 3 3 3
WGst -- -- -- -- -- -- -- -- -- -- -- -- -- --
Raw TAF
KCSG 151139Z 1512/1612 10003KT P6SM FEW005 BKN012
  FM151500 15006KT P6SM SCT025
  FM151700 21007KT P6SM SCT040
  FM152300 22003KT P6SM FEW050
  FM160900 00000KT P6SM BKN015


Raw METAR
KCSG 151355Z 16004KT 10SM FEW011 BKN050 BKN060 23/20 A3014 RMK AO2 T02280200
KCSG 151351Z VRB03KT 10SM BKN009 BKN055 22/20 A3014 RMK AO2 SLP202 T02220200
KCSG 151251Z AUTO 07003KT 10SM BKN009 BKN055 21/18 A3013 RMK AO2 SLP198 T02060183
KCSG 151244Z AUTO 00000KT 10SM BKN009 BKN055 20/18 A3012 RMK AO2 T02000178
KCSG 151231Z AUTO 00000KT 10SM SCT009 BKN055 19/18 A3012 RMK AO2 T01940178
KCSG 151151Z AUTO 08004KT 10SM SCT050 19/17 A3012 RMK AO2 SLP194 T01890172 10200 20178 53005

METAR Board
Radar Display
Forecast Discussion
For situational awareness. Not to be used for flight planning purposes.